createdAt,value
2018-07-21T00:01:16.398Z,100945.00
2018-07-21T00:03:45.495Z,100943.81
2018-07-21T00:06:14.243Z,100945.78
2018-07-21T00:08:43.362Z,100947.75
2018-07-21T00:11:12.803Z,100944.63
2018-07-21T00:13:41.847Z,100940.06
2018-07-21T00:16:10.607Z,100933.55
2018-07-21T00:18:39.342Z,100936.30
2018-07-21T00:21:08.147Z,100931.09
2018-07-21T00:23:36.883Z,100934.19
2018-07-21T00:26:05.578Z,100933.55
2018-07-21T00:28:34.355Z,100930.39
2018-07-21T00:31:03.150Z,100926.82
2018-07-21T00:33:32.111Z,100922.47
2018-07-21T00:36:01.131Z,100931.05
2018-07-21T00:38:30.378Z,100921.91
2018-07-21T00:40:59.061Z,100924.03
2018-07-21T00:43:28.228Z,100928.30
2018-07-21T00:45:57.320Z,100930.02
2018-07-21T00:48:26.574Z,100921.79
2018-07-21T00:50:55.481Z,100923.68
2018-07-21T00:53:24.614Z,100922.30
2018-07-21T00:55:53.945Z,100925.61
2018-07-21T00:58:23.127Z,100925.47
2018-07-21T01:00:52.758Z,100920.86
2018-07-21T01:03:21.902Z,100919.84
2018-07-21T01:05:51.375Z,100916.65
2018-07-21T01:08:20.914Z,100918.13
2018-07-21T01:10:50.406Z,100925.41
2018-07-21T01:13:19.275Z,100923.81
2018-07-21T01:15:48.695Z,100921.66
2018-07-21T01:18:17.728Z,100923.25
2018-07-21T01:20:46.643Z,100916.38
2018-07-21T01:23:15.973Z,100907.69
2018-07-21T01:25:45.667Z,100906.23
2018-07-21T01:28:14.819Z,100906.23
2018-07-21T01:30:44.402Z,100900.88
2018-07-21T01:33:13.724Z,100903.44
2018-07-21T01:35:42.692Z,100905.45
2018-07-21T01:38:12.874Z,100904.86
2018-07-21T01:40:42.320Z,100908.28
2018-07-21T01:43:11.455Z,100916.94
2018-07-21T01:45:40.562Z,100923.67
2018-07-21T01:48:09.348Z,100921.92
2018-07-21T01:50:38.343Z,100914.41
2018-07-21T01:53:07.232Z,100915.15
2018-07-21T01:55:36.651Z,100912.03
2018-07-21T01:58:05.661Z,100906.95
2018-07-21T02:00:34.485Z,100910.29
2018-07-21T02:03:03.437Z,100904.42
2018-07-21T02:05:32.805Z,100902.41
2018-07-21T02:08:03.683Z,100908.91
2018-07-21T02:10:34.380Z,100906.80
2018-07-21T02:13:04.442Z,100905.72
2018-07-21T02:15:33.824Z,100903.39
2018-07-21T02:18:02.804Z,100905.80
2018-07-21T02:20:31.602Z,100896.37
2018-07-21T02:23:00.451Z,100903.91
2018-07-21T02:25:29.698Z,100904.84
2018-07-21T02:27:59.058Z,100904.34
2018-07-21T02:30:27.943Z,100908.48
2018-07-21T02:32:56.799Z,100907.47
2018-07-21T02:35:25.579Z,100905.02
2018-07-21T02:37:54.648Z,100901.63
2018-07-21T02:40:23.941Z,100908.50
2018-07-21T02:42:53.145Z,100910.36
2018-07-21T02:45:22.363Z,100910.31
2018-07-21T02:47:51.480Z,100908.94
2018-07-21T02:50:20.226Z,100912.47
2018-07-21T02:52:49.275Z,100907.56
2018-07-21T02:55:18.343Z,100906.59
2018-07-21T02:57:47.145Z,100901.47
2018-07-21T03:00:16.378Z,100908.79
2018-07-21T03:02:45.533Z,100907.41
2018-07-21T03:05:14.473Z,100906.38
2018-07-21T03:07:43.667Z,100904.44
2018-07-21T03:10:12.418Z,100901.25
2018-07-21T03:12:42.212Z,100899.67
2018-07-21T03:15:11.373Z,100897.63
2018-07-21T03:17:40.490Z,100893.66
2018-07-21T03:20:09.395Z,100895.39
2018-07-21T03:22:38.077Z,100899.89
2018-07-21T03:25:07.475Z,100893.02
2018-07-21T03:27:36.588Z,100900.89
2018-07-21T03:30:06.171Z,100903.00
2018-07-21T03:32:35.694Z,100901.03
2018-07-21T03:35:04.714Z,100897.20
2018-07-21T03:37:33.422Z,100890.05
2018-07-21T03:40:02.582Z,100891.94
2018-07-21T03:42:31.566Z,100888.97
2018-07-21T03:45:00.901Z,100886.95
2018-07-21T03:47:29.907Z,100888.69
2018-07-21T03:49:58.685Z,100882.16
2018-07-21T03:52:27.451Z,100886.92
2018-07-21T03:54:56.750Z,100880.56
2018-07-21T03:57:26.359Z,100876.45
2018-07-21T03:59:55.930Z,100877.03
2018-07-21T04:02:25.262Z,100872.77
2018-07-21T04:04:55.116Z,100871.31
2018-07-21T04:07:24.858Z,100871.31
2018-07-21T04:09:54.596Z,100873.98
2018-07-21T04:12:24.282Z,100872.44
2018-07-21T04:14:54.028Z,100864.78
2018-07-21T04:17:27.479Z,100865.34
2018-07-21T04:19:57.726Z,100860.72
2018-07-21T04:22:27.197Z,100860.97
2018-07-21T04:24:56.442Z,100858.92
2018-07-21T04:27:25.600Z,100854.08
2018-07-21T04:29:54.418Z,100848.86
2018-07-21T04:32:23.208Z,100850.06
2018-07-21T04:34:52.214Z,100847.32
2018-07-21T04:37:21.517Z,100840.96
2018-07-21T04:39:50.930Z,100844.34
2018-07-21T04:42:19.983Z,100851.71
2018-07-21T04:44:49.167Z,100856.92
2018-07-21T04:47:18.273Z,100854.36
2018-07-21T04:49:47.005Z,100851.61
2018-07-21T04:52:15.804Z,100853.94
2018-07-21T04:54:44.799Z,100858.05
2018-07-21T04:57:13.634Z,100861.88
2018-07-21T04:59:42.844Z,100872.16
2018-07-21T05:02:11.917Z,100888.00
2018-07-21T05:04:40.922Z,100890.16
2018-07-21T05:07:10.305Z,100891.02
2018-07-21T05:09:39.425Z,100884.02
2018-07-21T05:12:07.749Z,100891.63
2018-07-21T05:14:37.174Z,100879.58
2018-07-21T05:17:06.171Z,100885.95
2018-07-21T05:19:35.066Z,100876.98
2018-07-21T05:22:04.186Z,100871.20
2018-07-21T05:24:33.090Z,100875.30
2018-07-21T05:27:02.601Z,100875.44
2018-07-21T05:29:31.918Z,100877.67
2018-07-21T05:32:00.978Z,100884.13
2018-07-21T05:34:29.990Z,100882.02
2018-07-21T05:36:59.184Z,100882.23
2018-07-21T05:39:28.288Z,100889.97
2018-07-21T05:41:57.785Z,100897.71
2018-07-21T05:44:27.579Z,100900.09
2018-07-21T05:46:56.602Z,100895.48
2018-07-21T05:49:25.932Z,100892.23
2018-07-21T05:51:55.445Z,100888.09
2018-07-21T05:54:24.226Z,100891.55
2018-07-21T05:56:53.112Z,100890.45
2018-07-21T05:59:22.035Z,100890.67
2018-07-21T06:01:51.300Z,100888.73
2018-07-21T06:04:20.258Z,100886.69
2018-07-21T06:06:49.742Z,100895.16
2018-07-21T06:09:19.075Z,100895.88
2018-07-21T06:11:47.790Z,100895.44
2018-07-21T06:14:16.834Z,100913.58
2018-07-21T06:16:45.906Z,100915.03
2018-07-21T06:19:15.449Z,100921.50
2018-07-21T06:21:44.331Z,100922.80
2018-07-21T06:24:13.748Z,100927.19
2018-07-21T06:26:43.556Z,100923.33
2018-07-21T06:29:12.631Z,100916.52
2018-07-21T06:31:41.933Z,100923.69
2018-07-21T06:34:11.531Z,100922.42
2018-07-21T06:36:41.304Z,100942.63
2018-07-21T06:39:12.568Z,100942.25
2018-07-21T06:41:41.807Z,100942.47
2018-07-21T06:44:10.742Z,100945.29
2018-07-21T06:46:39.554Z,100944.77
2018-07-21T06:49:08.336Z,100957.19
2018-07-21T06:51:37.514Z,100962.02
2018-07-21T06:54:06.551Z,100969.98
2018-07-21T06:56:35.641Z,100970.05
2018-07-21T06:59:04.839Z,100973.66
2018-07-21T07:01:34.041Z,100977.33
2018-07-21T07:04:02.990Z,100980.88
2018-07-21T07:06:32.052Z,100975.90
2018-07-21T07:09:00.821Z,100972.86
2018-07-21T07:11:29.668Z,100971.61
2018-07-21T07:13:58.997Z,100970.70
2018-07-21T07:16:29.084Z,100984.16
2018-07-21T07:18:57.944Z,100980.66
2018-07-21T07:21:26.915Z,100982.03
2018-07-21T07:23:55.733Z,100988.23
2018-07-21T07:26:24.626Z,100984.98
2018-07-21T07:28:54.120Z,100984.86
2018-07-21T07:31:23.184Z,100990.48
2018-07-21T07:33:52.290Z,100989.06
2018-07-21T07:36:21.140Z,100988.95
2018-07-21T07:38:50.219Z,100979.91
2018-07-21T07:41:19.042Z,100979.64
2018-07-21T07:43:48.064Z,100981.52
2018-07-21T07:46:17.610Z,100975.69
2018-07-21T07:48:46.788Z,100977.83
2018-07-21T07:51:15.869Z,100975.50
2018-07-21T07:53:44.993Z,100989.58
2018-07-21T07:56:13.770Z,100986.05
2018-07-21T07:58:42.578Z,100982.72
2018-07-21T08:01:11.390Z,100986.22
2018-07-21T08:03:40.386Z,100984.16
2018-07-21T08:06:09.454Z,100977.73
2018-07-21T08:08:38.214Z,100971.88
2018-07-21T08:11:07.339Z,100983.39
2018-07-21T08:13:36.716Z,100976.11
2018-07-21T08:16:06.270Z,100982.89
2018-07-21T08:18:35.017Z,100975.80
2018-07-21T08:21:04.076Z,100981.80
2018-07-21T08:23:33.320Z,100979.62
2018-07-21T08:26:02.237Z,100979.61
2018-07-21T08:28:31.044Z,100973.69
2018-07-21T08:30:59.882Z,100977.25
2018-07-21T08:33:28.714Z,100972.70
2018-07-21T08:35:57.875Z,100973.47
2018-07-21T08:38:27.192Z,100975.07
2018-07-21T08:40:56.321Z,100969.30
2018-07-21T08:43:25.099Z,100965.73
2018-07-21T08:45:54.089Z,100969.30
2018-07-21T08:48:25.110Z,100967.92
2018-07-21T08:50:53.895Z,100968.50
2018-07-21T08:53:22.953Z,100969.69
2018-07-21T08:55:51.941Z,100970.23
2018-07-21T08:58:20.951Z,100966.88
2018-07-21T09:00:49.975Z,100968.61
2018-07-21T09:03:19.062Z,100963.20
2018-07-21T09:05:48.138Z,100959.02
2018-07-21T09:08:17.243Z,100953.62
2018-07-21T09:10:46.318Z,100949.55
2018-07-21T09:13:15.170Z,100952.00
2018-07-21T09:15:43.914Z,100947.57
2018-07-21T09:18:12.656Z,100951.24
2018-07-21T09:20:41.447Z,100952.11
2018-07-21T09:23:10.235Z,100949.13
2018-07-21T09:25:39.271Z,100945.94
2018-07-21T09:28:08.193Z,100948.23
2018-07-21T09:30:37.274Z,100945.71
2018-07-21T09:33:06.387Z,100948.69
2018-07-21T09:35:35.247Z,100939.81
2018-07-21T09:38:04.135Z,100941.80
2018-07-21T09:40:33.233Z,100938.68
2018-07-21T09:43:02.302Z,100935.27
2018-07-21T09:45:31.977Z,100937.90
2018-07-21T09:48:07.699Z,100939.41
2018-07-21T09:50:37.051Z,100936.52
2018-07-21T09:53:06.495Z,100932.27
2018-07-21T09:55:35.948Z,100934.36
2018-07-21T09:58:04.946Z,100941.31
2018-07-21T10:00:38.831Z,100939.04
2018-07-21T10:03:07.959Z,100938.58
2018-07-21T10:05:36.716Z,100946.48
2018-07-21T10:08:15.158Z,100943.91
2018-07-21T10:10:44.187Z,100947.62
2018-07-21T10:13:13.497Z,100945.20
2018-07-21T10:15:42.293Z,100942.95
2018-07-21T10:18:11.425Z,100938.61
2018-07-21T10:20:40.205Z,100937.28
2018-07-21T10:23:09.319Z,100938.34
2018-07-21T10:25:43.330Z,100941.75
2018-07-21T10:28:17.358Z,100941.98
2018-07-21T10:30:46.141Z,100943.96
2018-07-21T10:33:15.472Z,100934.27
2018-07-21T10:35:44.238Z,100932.95
2018-07-21T10:38:13.281Z,100935.97
2018-07-21T10:40:42.487Z,100930.17
2018-07-21T10:43:11.360Z,100928.76
2018-07-21T10:45:40.441Z,100936.05
2018-07-21T10:48:09.347Z,100929.11
2018-07-21T10:50:38.160Z,100927.41
2018-07-21T10:53:07.291Z,100924.83
2018-07-21T10:55:36.509Z,100924.15
2018-07-21T10:58:05.560Z,100924.89
2018-07-21T11:00:34.651Z,100927.03
2018-07-21T11:03:03.427Z,100927.88
2018-07-21T11:05:32.484Z,100928.56
2018-07-21T11:08:01.220Z,100930.14
2018-07-21T11:10:29.997Z,100932.16
2018-07-21T11:12:58.834Z,100927.70
2018-07-21T11:15:27.902Z,100931.75
2018-07-21T11:17:56.945Z,100933.33
2018-07-21T11:20:26.071Z,100927.72
2018-07-21T11:22:54.830Z,100931.16
2018-07-21T11:25:24.287Z,100924.20
2018-07-21T11:27:53.034Z,100921.84
2018-07-21T11:30:21.789Z,100920.96
2018-07-21T11:32:50.559Z,100917.69
2018-07-21T11:35:19.718Z,100922.03
2018-07-21T11:37:48.694Z,100916.94
2018-07-21T11:40:18.025Z,100918.95
2018-07-21T11:42:47.051Z,100916.38
2018-07-21T11:45:15.789Z,100907.23
2018-07-21T11:47:44.866Z,100907.73
2018-07-21T11:50:14.058Z,100899.59
2018-07-21T11:52:43.183Z,100898.86
2018-07-21T11:55:12.453Z,100896.02
2018-07-21T11:57:41.281Z,100900.39
2018-07-21T12:00:10.672Z,100896.17
2018-07-21T12:02:39.684Z,100889.05
2018-07-21T12:05:08.713Z,100879.62
2018-07-21T12:07:38.062Z,100889.47
2018-07-21T12:10:08.128Z,100884.11
2018-07-21T12:12:37.400Z,100885.81
2018-07-21T12:15:06.708Z,100884.02
2018-07-21T12:17:35.749Z,100886.20
2018-07-21T12:20:04.823Z,100884.94
2018-07-21T12:22:35.636Z,100886.08
2018-07-21T12:25:05.079Z,100881.06
2018-07-21T12:27:33.880Z,100881.82
2018-07-21T12:30:04.037Z,100880.25
2018-07-21T12:32:32.848Z,100881.56
2018-07-21T12:35:03.725Z,100876.62
2018-07-21T12:37:35.210Z,100876.29
2018-07-21T12:40:04.616Z,100870.64
2018-07-21T12:42:33.383Z,100873.41
2018-07-21T12:45:03.025Z,100873.22
2018-07-21T12:47:32.845Z,100875.48
2018-07-21T12:50:05.666Z,100873.09
2018-07-21T12:52:34.422Z,100877.57
2018-07-21T12:55:03.700Z,100867.48
2018-07-21T12:57:32.735Z,100870.44
2018-07-21T13:00:02.314Z,100864.95
2018-07-21T13:02:32.755Z,100869.61
2018-07-21T13:05:02.384Z,100869.07
2018-07-21T13:07:31.754Z,100870.64
2018-07-21T13:10:00.799Z,100864.66
2018-07-21T13:12:29.737Z,100867.77
2018-07-21T13:15:02.916Z,100860.11
2018-07-21T13:17:33.000Z,100859.36
2018-07-21T13:20:02.596Z,100861.52
2018-07-21T13:22:31.611Z,100871.00
2018-07-21T13:25:02.078Z,100872.33
2018-07-21T13:27:31.032Z,100872.76
2018-07-21T13:29:59.988Z,100874.95
2018-07-21T13:32:30.851Z,100869.94
2018-07-21T13:34:59.578Z,100868.52
2018-07-21T13:37:28.722Z,100868.07
2018-07-21T13:40:03.499Z,100872.75
2018-07-21T13:42:32.879Z,100869.11
2018-07-21T13:45:02.209Z,100859.82
2018-07-21T13:47:31.329Z,100856.69
2018-07-21T13:50:00.893Z,100859.24
2018-07-21T13:52:29.731Z,100857.16
2018-07-21T13:54:58.792Z,100862.18
2018-07-21T13:57:31.670Z,100861.95
2018-07-21T14:00:00.758Z,100857.94
2018-07-21T14:02:29.754Z,100855.30
2018-07-21T14:04:58.916Z,100856.16
2018-07-21T14:07:28.332Z,100861.02
2018-07-21T14:10:00.948Z,100858.42
2018-07-21T14:12:30.453Z,100857.16
2018-07-21T14:14:59.523Z,100857.27
2018-07-21T14:17:28.620Z,100852.80
2018-07-21T14:19:57.670Z,100855.00
2018-07-21T14:22:26.674Z,100852.66
2018-07-21T14:24:55.830Z,100854.78
2018-07-21T14:27:25.185Z,100850.30
2018-07-21T14:29:54.092Z,100847.88
2018-07-21T14:32:22.973Z,100850.31
2018-07-21T14:34:51.764Z,100849.05
2018-07-21T14:37:20.506Z,100853.70
2018-07-21T14:39:49.471Z,100855.79
2018-07-21T14:42:18.627Z,100856.59
2018-07-21T14:44:47.378Z,100853.50
2018-07-21T14:47:16.085Z,100856.38
2018-07-21T14:49:45.108Z,100851.85
2018-07-21T14:52:14.193Z,100855.80
2018-07-21T14:54:43.614Z,100854.47
2018-07-21T14:57:12.679Z,100850.64
2018-07-21T14:59:41.523Z,100850.27
2018-07-21T15:02:10.327Z,100851.70
2018-07-21T15:04:39.713Z,100861.85
2018-07-21T15:07:08.576Z,100859.75
2018-07-21T15:09:37.584Z,100860.50
2018-07-21T15:12:06.906Z,100857.14
2018-07-21T15:14:35.855Z,100852.84
2018-07-21T15:17:04.619Z,100855.75
2018-07-21T15:19:34.046Z,100864.14
2018-07-21T15:22:03.173Z,100857.91
2018-07-21T15:24:33.814Z,100864.75
2018-07-21T15:27:03.823Z,100865.64
2018-07-21T15:29:34.667Z,100860.44
2018-07-21T15:32:05.463Z,100855.65
2018-07-21T15:34:34.720Z,100860.95
2018-07-21T15:37:03.706Z,100852.48
2018-07-21T15:39:32.914Z,100856.78
2018-07-21T15:42:02.673Z,100857.64
2018-07-21T15:44:33.829Z,100859.19
2018-07-21T15:47:02.691Z,100860.03
2018-07-21T15:49:31.786Z,100850.10
2018-07-21T15:52:00.835Z,100852.12
2018-07-21T15:54:30.376Z,100851.09
2018-07-21T15:56:59.724Z,100852.37
2018-07-21T15:59:29.202Z,100851.56
2018-07-21T16:01:58.234Z,100853.05
2018-07-21T16:04:27.066Z,100852.86
2018-07-21T16:07:02.333Z,100850.97
2018-07-21T16:09:31.376Z,100850.70
2018-07-21T16:12:00.460Z,100848.53
2018-07-21T16:14:29.268Z,100853.23
2018-07-21T16:16:58.622Z,100852.78
2018-07-21T16:19:27.549Z,100855.98
2018-07-21T16:21:56.617Z,100852.14
2018-07-21T16:24:25.697Z,100853.80
2018-07-21T16:26:54.793Z,100858.09
2018-07-21T16:29:23.610Z,100849.51
2018-07-21T16:31:52.939Z,100847.77
2018-07-21T16:34:22.292Z,100852.77
2018-07-21T16:36:51.354Z,100848.25
2018-07-21T16:39:20.098Z,100848.47
2018-07-21T16:41:48.917Z,100847.28
2018-07-21T16:44:17.675Z,100845.89
2018-07-21T16:46:46.598Z,100846.55
2018-07-21T16:49:15.447Z,100847.07
2018-07-21T16:51:44.558Z,100834.92
2018-07-21T16:54:13.340Z,100841.11
2018-07-21T16:56:42.297Z,100835.50
2018-07-21T16:59:11.470Z,100833.67
2018-07-21T17:01:40.250Z,100830.12
2018-07-21T17:04:09.274Z,100828.28
2018-07-21T17:06:38.739Z,100831.95
2018-07-21T17:09:10.129Z,100829.06
2018-07-21T17:11:38.925Z,100832.63
2018-07-21T17:14:08.861Z,100829.75
2018-07-21T17:16:39.036Z,100826.04
2018-07-21T17:19:12.700Z,100822.67
2018-07-21T17:21:41.771Z,100826.38
2018-07-21T17:24:11.105Z,100828.55
2018-07-21T17:26:40.426Z,100826.28
2018-07-21T17:29:09.462Z,100827.34
2018-07-21T17:31:38.458Z,100825.77
2018-07-21T17:34:07.206Z,100826.55
2018-07-21T17:36:36.027Z,100832.23
2018-07-21T17:39:07.039Z,100827.68
2018-07-21T17:41:36.128Z,100824.26
2018-07-21T17:44:05.015Z,100828.09
2018-07-21T17:46:34.731Z,100826.02
2018-07-21T17:49:04.242Z,100830.19
2018-07-21T17:51:32.961Z,100830.78
2018-07-21T17:54:02.594Z,100829.42
2018-07-21T17:56:31.694Z,100830.36
2018-07-21T17:59:02.064Z,100837.45
2018-07-21T18:01:30.849Z,100836.91
2018-07-21T18:03:59.607Z,100835.11
2018-07-21T18:06:29.366Z,100834.52
2018-07-21T18:08:58.490Z,100833.93
2018-07-21T18:11:27.924Z,100831.13
2018-07-21T18:13:56.821Z,100827.97
2018-07-21T18:16:25.722Z,100830.14
2018-07-21T18:18:54.502Z,100824.21
2018-07-21T18:21:23.765Z,100833.89
2018-07-21T18:23:52.695Z,100831.31
2018-07-21T18:26:23.234Z,100830.09
2018-07-21T18:28:52.575Z,100833.61
2018-07-21T18:31:22.106Z,100839.19
2018-07-21T18:33:51.992Z,100841.11
2018-07-21T18:36:21.940Z,100846.61
2018-07-21T18:38:50.911Z,100850.12
2018-07-21T18:41:21.894Z,100853.77
2018-07-21T18:43:50.909Z,100854.39
2018-07-21T18:46:20.076Z,100854.56
2018-07-21T18:48:49.278Z,100857.70
2018-07-21T18:51:18.184Z,100857.05
2018-07-21T18:53:47.563Z,100862.62
2018-07-21T18:56:16.456Z,100859.55
2018-07-21T18:58:45.635Z,100865.92
2018-07-21T19:01:14.813Z,100865.33
2018-07-21T19:03:43.926Z,100869.62
2018-07-21T19:06:13.120Z,100877.27
2018-07-21T19:08:47.242Z,100883.33
2018-07-21T19:11:16.048Z,100881.70
2018-07-21T19:13:45.664Z,100877.89
2018-07-21T19:16:19.871Z,100877.74
2018-07-21T19:18:49.055Z,100875.22
2018-07-21T19:21:22.958Z,100880.84
2018-07-21T19:23:52.566Z,100883.09
2018-07-21T19:26:27.359Z,100881.31
2018-07-21T19:28:57.019Z,100883.87
2018-07-21T19:31:25.838Z,100879.50
2018-07-21T19:33:55.092Z,100878.91
2018-07-21T19:36:24.144Z,100881.08
2018-07-21T19:38:53.370Z,100884.09
2018-07-21T19:41:27.902Z,100889.13
2018-07-21T19:43:57.469Z,100887.83
2018-07-21T19:46:26.649Z,100886.28
2018-07-21T19:48:56.217Z,100889.45
2018-07-21T19:51:25.324Z,100890.38
2018-07-21T19:54:01.162Z,100890.34
2018-07-21T19:56:30.994Z,100893.08
2018-07-21T19:58:59.807Z,100895.59
2018-07-21T20:01:28.826Z,100895.39
2018-07-21T20:03:58.504Z,100904.04
2018-07-21T20:06:27.605Z,100903.95
2018-07-21T20:08:56.757Z,100907.95
2018-07-21T20:11:26.354Z,100915.42
2018-07-21T20:13:55.265Z,100918.42
2018-07-21T20:16:27.473Z,100921.44
2018-07-21T20:18:56.448Z,100916.31
2018-07-21T20:21:25.692Z,100920.73
2018-07-21T20:23:56.411Z,100923.52
2018-07-21T20:26:31.769Z,100927.90
2018-07-21T20:29:11.872Z,100927.52
2018-07-21T20:31:41.043Z,100933.11
2018-07-21T20:34:09.884Z,100929.60
2018-07-21T20:36:39.085Z,100934.61
2018-07-21T20:39:12.419Z,100933.27
2018-07-21T20:41:41.792Z,100930.36
2018-07-21T20:44:11.557Z,100934.80
2018-07-21T20:46:40.345Z,100941.75
2018-07-21T20:49:11.320Z,100940.99
2018-07-21T20:51:40.182Z,100934.27
2018-07-21T20:54:09.296Z,100934.67
2018-07-21T20:56:38.045Z,100939.05
2018-07-21T20:59:06.772Z,100930.73
2018-07-21T21:01:39.394Z,100937.70
2018-07-21T21:04:08.861Z,100937.95
2018-07-21T21:06:50.602Z,100943.13
2018-07-21T21:09:19.698Z,100940.16
2018-07-21T21:11:48.512Z,100942.95
2018-07-21T21:14:18.730Z,100940.76
2018-07-21T21:16:48.171Z,100946.91
2018-07-21T21:19:21.384Z,100947.34
2018-07-21T21:21:51.639Z,100947.94
2018-07-21T21:24:20.447Z,100946.34
2018-07-21T21:26:49.323Z,100941.20
2018-07-21T21:29:18.208Z,100938.22
2018-07-21T21:31:47.006Z,100940.41
2018-07-21T21:34:16.331Z,100936.84
2018-07-21T21:36:45.305Z,100944.56
2018-07-21T21:39:14.546Z,100943.59
2018-07-21T21:41:43.988Z,100941.41
2018-07-21T21:44:12.735Z,100941.35
2018-07-21T21:46:41.505Z,100938.38
2018-07-21T21:49:10.634Z,100940.95
2018-07-21T21:51:39.481Z,100943.13
2018-07-21T21:54:08.753Z,100943.90
2018-07-21T21:56:37.553Z,100941.91
2018-07-21T21:59:06.538Z,100938.32
2018-07-21T22:01:40.949Z,100940.46
2018-07-21T22:04:11.385Z,100943.22
2018-07-21T22:06:42.245Z,100943.03
2018-07-21T22:09:13.848Z,100942.56
2018-07-21T22:11:43.181Z,100941.90
2018-07-21T22:14:12.077Z,100936.92
2018-07-21T22:16:41.362Z,100933.12
2018-07-21T22:19:10.227Z,100938.44
2018-07-21T22:21:39.397Z,100940.77
2018-07-21T22:24:08.775Z,100939.95
2018-07-21T22:26:38.777Z,100943.44
2018-07-21T22:29:07.902Z,100947.98
2018-07-21T22:31:36.938Z,100952.23
2018-07-21T22:34:06.063Z,100959.72
2018-07-21T22:36:35.592Z,100958.09
2018-07-21T22:39:06.697Z,100955.64
2018-07-21T22:41:35.777Z,100954.18
2018-07-21T22:44:05.187Z,100963.20
2018-07-21T22:46:34.030Z,100956.04
2018-07-21T22:49:02.847Z,100953.97
2018-07-21T22:51:31.778Z,100951.54
2018-07-21T22:54:00.692Z,100959.88
2018-07-21T22:56:29.486Z,100959.56
2018-07-21T22:58:58.577Z,100966.23
2018-07-21T23:01:27.942Z,100964.20
2018-07-21T23:03:57.159Z,100964.36
2018-07-21T23:06:26.075Z,100972.03
2018-07-21T23:08:55.066Z,100971.38
2018-07-21T23:11:24.462Z,100969.39
2018-07-21T23:13:53.875Z,100968.34
2018-07-21T23:16:22.872Z,100964.97
2018-07-21T23:18:51.972Z,100971.98
2018-07-21T23:21:21.004Z,100965.58
2018-07-21T23:23:50.016Z,100969.20
2018-07-21T23:26:19.118Z,100976.48
2018-07-21T23:28:48.347Z,100970.45
2018-07-21T23:31:17.527Z,100970.77
2018-07-21T23:33:46.618Z,100982.87
2018-07-21T23:36:15.750Z,100974.45
2018-07-21T23:38:44.876Z,100983.57
2018-07-21T23:41:13.873Z,100986.39
2018-07-21T23:43:43.020Z,100980.43
2018-07-21T23:46:12.067Z,100975.73
2018-07-21T23:48:40.811Z,100982.29
2018-07-21T23:51:10.072Z,100982.16
2018-07-21T23:53:38.840Z,100980.95
2018-07-21T23:56:08.072Z,100990.94
2018-07-21T23:58:36.877Z,100991.98
